sensor_id;sensor_type;location;lat;lon;timestamp;P1;P2;P0
69746;PMS7003;57018;50.278;19.134;2024-03-08T00:02:36;54.00;44.50;26.50
69746;PMS7003;57018;50.278;19.134;2024-03-08T00:05:07;60.33;45.00;28.00
69746;PMS7003;57018;50.278;19.134;2024-03-08T00:07:37;61.00;48.50;31.00
69746;PMS7003;57018;50.278;19.134;2024-03-08T00:10:09;51.33;45.67;28.00
69746;PMS7003;57018;50.278;19.134;2024-03-08T00:12:40;61.50;47.75;29.00
69746;PMS7003;57018;50.278;19.134;2024-03-08T00:15:14;57.00;45.00;29.00
69746;PMS7003;57018;50.278;19.134;2024-03-08T00:17:45;52.00;45.00;28.00
69746;PMS7003;57018;50.278;19.134;2024-03-08T00:20:15;53.25;45.75;28.25
69746;PMS7003;57018;50.278;19.134;2024-03-08T00:22:45;54.00;44.00;28.00
69746;PMS7003;57018;50.278;19.134;2024-03-08T00:25:15;47.67;42.33;27.67
69746;PMS7003;57018;50.278;19.134;2024-03-08T00:27:45;47.00;42.00;28.00
69746;PMS7003;57018;50.278;19.134;2024-03-08T00:30:16;65.00;47.00;31.00
69746;PMS7003;57018;50.278;19.134;2024-03-08T00:32:46;54.50;45.00;27.50
69746;PMS7003;57018;50.278;19.134;2024-03-08T00:35:16;56.50;46.00;30.50
69746;PMS7003;57018;50.278;19.134;2024-03-08T00:37:46;58.00;49.50;29.50
69746;PMS7003;57018;50.278;19.134;2024-03-08T00:40:16;55.67;49.33;31.33
69746;PMS7003;57018;50.278;19.134;2024-03-08T00:42:45;59.25;47.25;29.00
69746;PMS7003;57018;50.278;19.134;2024-03-08T00:45:15;52.67;42.67;27.33
69746;PMS7003;57018;50.278;19.134;2024-03-08T00:47:45;59.00;46.00;28.00
69746;PMS7003;57018;50.278;19.134;2024-03-08T00:50:15;63.00;47.00;30.00
69746;PMS7003;57018;50.278;19.134;2024-03-08T00:52:46;57.67;46.00;31.00
69746;PMS7003;57018;50.278;19.134;2024-03-08T00:55:17;65.00;49.00;31.00
69746;PMS7003;57018;50.278;19.134;2024-03-08T00:57:46;51.50;44.50;31.00
69746;PMS7003;57018;50.278;19.134;2024-03-08T01:00:18;49.50;44.50;28.50
69746;PMS7003;57018;50.278;19.134;2024-03-08T01:02:49;52.00;46.00;28.00
69746;PMS7003;57018;50.278;19.134;2024-03-08T01:05:19;54.00;48.00;31.75
69746;PMS7003;57018;50.278;19.134;2024-03-08T01:07:50;58.00;46.00;31.00
69746;PMS7003;57018;50.278;19.134;2024-03-08T01:10:20;69.00;52.33;32.33
69746;PMS7003;57018;50.278;19.134;2024-03-08T01:12:50;57.67;44.67;29.67
69746;PMS7003;57018;50.278;19.134;2024-03-08T01:15:21;64.00;46.00;28.00
69746;PMS7003;57018;50.278;19.134;2024-03-08T01:17:54;55.00;47.33;31.00
69746;PMS7003;57018;50.278;19.134;2024-03-08T01:20:24;65.75;52.50;32.25
69746;PMS7003;57018;50.278;19.134;2024-03-08T01:22:53;64.00;46.00;31.00
69746;PMS7003;57018;50.278;19.134;2024-03-08T01:25:23;58.00;48.00;31.00
69746;PMS7003;57018;50.278;19.134;2024-03-08T01:27:54;63.50;46.75;30.25
69746;PMS7003;57018;50.278;19.134;2024-03-08T01:30:23;63.33;46.67;29.67
69746;PMS7003;57018;50.278;19.134;2024-03-08T01:32:53;55.00;44.67;28.33
69746;PMS7003;57018;50.278;19.134;2024-03-08T01:35:23;64.00;50.00;31.00
69746;PMS7003;57018;50.278;19.134;2024-03-08T01:37:55;61.00;47.50;30.00
69746;PMS7003;57018;50.278;19.134;2024-03-08T01:40:25;53.00;46.00;27.00
69746;PMS7003;57018;50.278;19.134;2024-03-08T01:42:56;65.00;49.00;31.00
69746;PMS7003;57018;50.278;19.134;2024-03-08T01:45:42;54.67;47.33;31.00
69746;PMS7003;57018;50.278;19.134;2024-03-08T01:48:13;65.50;50.00;28.50
69746;PMS7003;57018;50.278;19.134;2024-03-08T01:50:44;66.00;53.00;32.00
69746;PMS7003;57018;50.278;19.134;2024-03-08T01:53:16;58.00;48.00;28.00
69746;PMS7003;57018;50.278;19.134;2024-03-08T01:55:48;60.50;48.00;32.00
69746;PMS7003;57018;50.278;19.134;2024-03-08T01:58:20;47.50;43.50;28.00
69746;PMS7003;57018;50.278;19.134;2024-03-08T02:00:56;55.00;44.00;28.00
69746;PMS7003;57018;50.278;19.134;2024-03-08T02:03:26;55.00;44.00;28.00
69746;PMS7003;57018;50.278;19.134;2024-03-08T02:05:58;47.50;40.00;26.00
69746;PMS7003;57018;50.278;19.134;2024-03-08T02:08:28;50.50;44.50;29.00
69746;PMS7003;57018;50.278;19.134;2024-03-08T02:10:58;49.00;44.00;28.50
69746;PMS7003;57018;50.278;19.134;2024-03-08T02:13:29;43.75;42.25;27.00
69746;PMS7003;57018;50.278;19.134;2024-03-08T02:15:59;43.00;39.00;24.00
69746;PMS7003;57018;50.278;19.134;2024-03-08T02:18:30;50.00;43.00;28.00
69746;PMS7003;57018;50.278;19.134;2024-03-08T02:21:01;57.00;44.00;28.00
69746;PMS7003;57018;50.278;19.134;2024-03-08T02:23:32;44.00;42.00;27.67
69746;PMS7003;57018;50.278;19.134;2024-03-08T02:26:05;49.00;42.00;28.33
69746;PMS7003;57018;50.278;19.134;2024-03-08T02:28:35;46.00;41.50;28.50
69746;PMS7003;57018;50.278;19.134;2024-03-08T02:31:05;56.50;45.00;28.00
69746;PMS7003;57018;50.278;19.134;2024-03-08T02:33:35;50.00;40.00;24.00
69746;PMS7003;57018;50.278;19.134;2024-03-08T02:36:06;43.00;40.00;23.00
69746;PMS7003;57018;50.278;19.134;2024-03-08T02:38:36;58.00;42.00;28.00
69746;PMS7003;57018;50.278;19.134;2024-03-08T02:41:07;49.00;45.00;27.00
69746;PMS7003;57018;50.278;19.134;2024-03-08T02:43:38;42.50;41.75;24.00
69746;PMS7003;57018;50.278;19.134;2024-03-08T02:46:07;49.67;42.67;26.33
69746;PMS7003;57018;50.278;19.134;2024-03-08T02:48:38;49.67;42.67;27.33
69746;PMS7003;57018;50.278;19.134;2024-03-08T02:51:07;51.00;44.00;25.00
69746;PMS7003;57018;50.278;19.134;2024-03-08T02:53:38;46.50;42.25;28.50
69746;PMS7003;57018;50.278;19.134;2024-03-08T02:56:10;43.00;40.00;24.67
69746;PMS7003;57018;50.278;19.134;2024-03-08T02:58:43;44.00;41.00;24.00
69746;PMS7003;57018;50.278;19.134;2024-03-08T03:01:15;47.67;43.00;26.00
69746;PMS7003;57018;50.278;19.134;2024-03-08T03:03:47;51.50;38.75;23.50
69746;PMS7003;57018;50.278;19.134;2024-03-08T03:06:17;50.00;43.00;29.00
69746;PMS7003;57018;50.278;19.134;2024-03-08T03:08:47;41.00;38.00;24.00
69746;PMS7003;57018;50.278;19.134;2024-03-08T03:11:18;48.50;43.50;28.50
69746;PMS7003;57018;50.278;19.134;2024-03-08T03:13:49;44.00;39.00;25.00
69746;PMS7003;57018;50.278;19.134;2024-03-08T03:16:19;44.50;40.50;25.00
69746;PMS7003;57018;50.278;19.134;2024-03-08T03:18:49;44.50;41.00;24.00
69746;PMS7003;57018;50.278;19.134;2024-03-08T03:21:19;43.33;37.33;22.33
69746;PMS7003;57018;50.278;19.134;2024-03-08T03:23:49;54.00;45.00;26.50
69746;PMS7003;57018;50.278;19.134;2024-03-08T03:26:19;44.50;39.00;26.50
69746;PMS7003;57018;50.278;19.134;2024-03-08T03:28:49;46.00;42.00;25.00
69746;PMS7003;57018;50.278;19.134;2024-03-08T03:31:20;44.67;41.00;26.33
69746;PMS7003;57018;50.278;19.134;2024-03-08T03:33:52;41.00;36.00;22.00
69746;PMS7003;57018;50.278;19.134;2024-03-08T03:36:27;38.00;34.00;21.50
69746;PMS7003;57018;50.278;19.134;2024-03-08T03:38:58;49.00;44.50;25.00
69746;PMS7003;57018;50.278;19.134;2024-03-08T03:41:37;53.00;45.00;29.00
69746;PMS7003;57018;50.278;19.134;2024-03-08T03:44:07;52.00;42.50;28.00
69746;PMS7003;57018;50.278;19.134;2024-03-08T03:46:37;39.00;37.00;22.00
69746;PMS7003;57018;50.278;19.134;2024-03-08T03:49:10;49.00;44.00;28.00
69746;PMS7003;57018;50.278;19.134;2024-03-08T03:51:41;54.00;43.00;28.00
69746;PMS7003;57018;50.278;19.134;2024-03-08T03:54:11;44.00;39.00;26.00
69746;PMS7003;57018;50.278;19.134;2024-03-08T03:56:41;49.33;43.00;26.33
69746;PMS7003;57018;50.278;19.134;2024-03-08T03:59:12;45.75;35.25;24.50
69746;PMS7003;57018;50.278;19.134;2024-03-08T04:01:43;52.00;45.00;28.00
69746;PMS7003;57018;50.278;19.134;2024-03-08T04:04:13;43.00;40.00;24.00
69746;PMS7003;57018;50.278;19.134;2024-03-08T04:06:42;41.00;40.00;28.00
69746;PMS7003;57018;50.278;19.134;2024-03-08T04:09:12;44.00;38.00;24.00
69746;PMS7003;57018;50.278;19.134;2024-03-08T04:11:42;43.00;40.00;24.00
69746;PMS7003;57018;50.278;19.134;2024-03-08T04:14:12;46.00;39.00;26.00
69746;PMS7003;57018;50.278;19.134;2024-03-08T04:16:42;51.50;43.00;25.50
69746;PMS7003;57018;50.278;19.134;2024-03-08T04:19:13;43.00;36.00;21.00
69746;PMS7003;57018;50.278;19.134;2024-03-08T04:21:43;36.33;35.00;20.33
69746;PMS7003;57018;50.278;19.134;2024-03-08T04:24:13;40.67;39.00;24.67
69746;PMS7003;57018;50.278;19.134;2024-03-08T04:26:45;49.00;41.00;24.00
69746;PMS7003;57018;50.278;19.134;2024-03-08T04:29:15;39.00;35.00;23.00
69746;PMS7003;57018;50.278;19.134;2024-03-08T04:31:45;40.75;34.50;23.00
69746;PMS7003;57018;50.278;19.134;2024-03-08T04:34:15;39.50;35.00;21.50
69746;PMS7003;57018;50.278;19.134;2024-03-08T04:36:44;41.50;35.00;23.50
69746;PMS7003;57018;50.278;19.134;2024-03-08T04:39:14;42.00;37.00;23.00
69746;PMS7003;57018;50.278;19.134;2024-03-08T04:41:45;53.00;43.33;28.00
69746;PMS7003;57018;50.278;19.134;2024-03-08T04:44:15;42.00;37.00;22.00
69746;PMS7003;57018;50.278;19.134;2024-03-08T04:46:45;40.00;37.00;23.00
69746;PMS7003;57018;50.278;19.134;2024-03-08T04:49:17;47.00;41.67;25.33
69746;PMS7003;57018;50.278;19.134;2024-03-08T04:51:48;45.00;39.00;22.00
69746;PMS7003;57018;50.278;19.134;2024-03-08T04:54:18;45.00;42.50;24.00
69746;PMS7003;57018;50.278;19.134;2024-03-08T04:56:48;50.00;42.75;26.75
69746;PMS7003;57018;50.278;19.134;2024-03-08T04:59:18;44.25;37.25;25.25
69746;PMS7003;57018;50.278;19.134;2024-03-08T05:01:48;52.00;37.67;23.67
69746;PMS7003;57018;50.278;19.134;2024-03-08T05:04:18;40.50;39.00;23.50
69746;PMS7003;57018;50.278;19.134;2024-03-08T05:06:48;41.00;33.50;19.50
69746;PMS7003;57018;50.278;19.134;2024-03-08T05:09:18;50.00;41.50;27.00
69746;PMS7003;57018;50.278;19.134;2024-03-08T05:11:48;51.33;42.33;26.33
69746;PMS7003;57018;50.278;19.134;2024-03-08T05:14:18;45.50;40.00;25.50
69746;PMS7003;57018;50.278;19.134;2024-03-08T05:16:48;42.00;39.33;24.33
69746;PMS7003;57018;50.278;19.134;2024-03-08T05:19:18;43.00;38.00;26.00
69746;PMS7003;57018;50.278;19.134;2024-03-08T05:21:49;40.33;36.33;22.33
69746;PMS7003;57018;50.278;19.134;2024-03-08T05:24:19;38.67;34.67;23.33
69746;PMS7003;57018;50.278;19.134;2024-03-08T05:26:49;40.33;38.33;23.00
69746;PMS7003;57018;50.278;19.134;2024-03-08T05:29:19;38.00;35.50;19.50
69746;PMS7003;57018;50.278;19.134;2024-03-08T05:31:50;40.00;35.00;23.00
69746;PMS7003;57018;50.278;19.134;2024-03-08T05:34:20;41.00;33.50;22.50
69746;PMS7003;57018;50.278;19.134;2024-03-08T05:36:55;44.67;39.00;24.67
69746;PMS7003;57018;50.278;19.134;2024-03-08T05:39:27;31.00;28.00;20.00
69746;PMS7003;57018;50.278;19.134;2024-03-08T05:41:57;47.00;39.00;25.00
69746;PMS7003;57018;50.278;19.134;2024-03-08T05:44:26;43.33;35.00;20.67
69746;PMS7003;57018;50.278;19.134;2024-03-08T05:46:57;41.00;35.00;22.00
69746;PMS7003;57018;50.278;19.134;2024-03-08T05:49:27;48.50;40.00;26.00
69746;PMS7003;57018;50.278;19.134;2024-03-08T05:51:57;42.00;35.50;21.00
69746;PMS7003;57018;50.278;19.134;2024-03-08T05:54:29;40.33;36.00;23.00
69746;PMS7003;57018;50.278;19.134;2024-03-08T05:57:01;32.00;32.00;23.00
69746;PMS7003;57018;50.278;19.134;2024-03-08T05:59:33;36.00;33.00;22.33
69746;PMS7003;57018;50.278;19.134;2024-03-08T06:02:03;48.00;37.00;21.00
69746;PMS7003;57018;50.278;19.134;2024-03-08T06:04:34;36.50;33.00;21.00
69746;PMS7003;57018;50.278;19.134;2024-03-08T06:07:05;45.00;39.00;24.00
69746;PMS7003;57018;50.278;19.134;2024-03-08T06:09:39;34.00;32.50;19.50
69746;PMS7003;57018;50.278;19.134;2024-03-08T06:12:12;39.00;32.00;21.00
69746;PMS7003;57018;50.278;19.134;2024-03-08T06:14:45;29.50;28.50;19.00
69746;PMS7003;57018;50.278;19.134;2024-03-08T06:17:16;39.50;37.50;21.00
69746;PMS7003;57018;50.278;19.134;2024-03-08T06:19:46;38.50;36.00;22.00
69746;PMS7003;57018;50.278;19.134;2024-03-08T06:22:17;46.25;40.50;24.25
69746;PMS7003;57018;50.278;19.134;2024-03-08T06:24:47;41.50;35.00;22.00
69746;PMS7003;57018;50.278;19.134;2024-03-08T06:27:18;42.00;39.00;28.00
69746;PMS7003;57018;50.278;19.134;2024-03-08T06:29:48;55.50;41.75;25.00
69746;PMS7003;57018;50.278;19.134;2024-03-08T06:32:18;35.00;35.00;23.00
69746;PMS7003;57018;50.278;19.134;2024-03-08T06:34:48;44.50;41.50;26.00
69746;PMS7003;57018;50.278;19.134;2024-03-08T06:37:18;37.00;34.00;23.00
69746;PMS7003;57018;50.278;19.134;2024-03-08T06:39:48;37.00;34.00;22.00
69746;PMS7003;57018;50.278;19.134;2024-03-08T06:42:21;38.50;34.50;20.50
69746;PMS7003;57018;50.278;19.134;2024-03-08T06:44:53;47.67;39.33;24.00
69746;PMS7003;57018;50.278;19.134;2024-03-08T06:47:26;41.50;36.50;23.50
69746;PMS7003;57018;50.278;19.134;2024-03-08T06:50:00;41.50;37.00;22.50
69746;PMS7003;57018;50.278;19.134;2024-03-08T06:52:33;37.50;31.50;23.00
69746;PMS7003;57018;50.278;19.134;2024-03-08T06:55:03;47.50;37.50;24.00
69746;PMS7003;57018;50.278;19.134;2024-03-08T06:57:35;43.50;39.50;25.00
69746;PMS7003;57018;50.278;19.134;2024-03-08T07:00:06;36.25;33.50;23.00
69746;PMS7003;57018;50.278;19.134;2024-03-08T07:02:41;39.75;35.00;24.00
69746;PMS7003;57018;50.278;19.134;2024-03-08T07:05:12;39.50;36.50;23.50
69746;PMS7003;57018;50.278;19.134;2024-03-08T07:07:44;54.00;43.00;25.00
69746;PMS7003;57018;50.278;19.134;2024-03-08T07:10:15;37.50;33.50;20.50
69746;PMS7003;57018;50.278;19.134;2024-03-08T07:12:47;51.67;42.67;25.33
69746;PMS7003;57018;50.278;19.134;2024-03-08T07:15:17;48.00;40.33;23.33
69746;PMS7003;57018;50.278;19.134;2024-03-08T07:17:47;44.33;39.00;26.33
69746;PMS7003;57018;50.278;19.134;2024-03-08T07:20:19;41.00;40.00;24.00
69746;PMS7003;57018;50.278;19.134;2024-03-08T07:22:49;44.00;39.00;25.00
69746;PMS7003;57018;50.278;19.134;2024-03-08T07:25:19;48.67;40.33;27.00
69746;PMS7003;57018;50.278;19.134;2024-03-08T07:27:50;44.00;39.67;25.33
69746;PMS7003;57018;50.278;19.134;2024-03-08T07:30:22;40.50;35.00;21.00
69746;PMS7003;57018;50.278;19.134;2024-03-08T07:33:11;39.00;34.00;24.00
69746;PMS7003;57018;50.278;19.134;2024-03-08T07:35:41;41.00;38.00;25.67
69746;PMS7003;57018;50.278;19.134;2024-03-08T07:38:12;45.00;41.00;25.00
69746;PMS7003;57018;50.278;19.134;2024-03-08T07:40:45;55.33;41.33;26.33
69746;PMS7003;57018;50.278;19.134;2024-03-08T07:43:15;57.00;42.00;27.00
69746;PMS7003;57018;50.278;19.134;2024-03-08T07:45:45;53.00;41.00;25.00
69746;PMS7003;57018;50.278;19.134;2024-03-08T07:48:15;50.00;42.00;26.00
69746;PMS7003;57018;50.278;19.134;2024-03-08T07:50:44;40.50;38.25;26.25
69746;PMS7003;57018;50.278;19.134;2024-03-08T07:53:15;38.00;35.50;23.50
69746;PMS7003;57018;50.278;19.134;2024-03-08T07:55:47;50.50;39.50;25.00
69746;PMS7003;57018;50.278;19.134;2024-03-08T07:58:17;41.00;35.00;24.00
69746;PMS7003;57018;50.278;19.134;2024-03-08T08:00:47;48.00;38.50;25.00
69746;PMS7003;57018;50.278;19.134;2024-03-08T08:03:17;49.00;40.00;25.50
69746;PMS7003;57018;50.278;19.134;2024-03-08T08:05:47;43.00;38.33;22.33
69746;PMS7003;57018;50.278;19.134;2024-03-08T08:08:17;42.00;34.00;21.00
69746;PMS7003;57018;50.278;19.134;2024-03-08T08:10:47;45.00;38.00;23.00
69746;PMS7003;57018;50.278;19.134;2024-03-08T08:13:17;44.00;39.00;24.00
69746;PMS7003;57018;50.278;19.134;2024-03-08T08:15:50;51.00;41.00;26.50
69746;PMS7003;57018;50.278;19.134;2024-03-08T08:18:22;38.00;32.00;22.00
69746;PMS7003;57018;50.278;19.134;2024-03-08T08:20:52;45.67;41.00;24.00
69746;PMS7003;57018;50.278;19.134;2024-03-08T08:23:22;35.50;33.50;20.00
69746;PMS7003;57018;50.278;19.134;2024-03-08T08:25:52;36.00;33.00;21.00
69746;PMS7003;57018;50.278;19.134;2024-03-08T08:28:22;47.00;40.50;22.50
69746;PMS7003;57018;50.278;19.134;2024-03-08T08:30:52;51.00;39.00;27.00
69746;PMS7003;57018;50.278;19.134;2024-03-08T08:33:22;39.00;37.00;22.00
69746;PMS7003;57018;50.278;19.134;2024-03-08T08:35:52;45.33;39.33;24.67
69746;PMS7003;57018;50.278;19.134;2024-03-08T08:38:23;49.00;42.00;25.00
69746;PMS7003;57018;50.278;19.134;2024-03-08T08:40:53;43.00;39.00;23.00
69746;PMS7003;57018;50.278;19.134;2024-03-08T08:43:23;46.00;39.50;25.00
69746;PMS7003;57018;50.278;19.134;2024-03-08T08:45:53;43.00;37.00;22.00
69746;PMS7003;57018;50.278;19.134;2024-03-08T08:48:26;42.33;38.00;26.33
69746;PMS7003;57018;50.278;19.134;2024-03-08T08:50:57;41.00;39.00;26.00
69746;PMS7003;57018;50.278;19.134;2024-03-08T08:53:27;36.33;32.00;22.33
69746;PMS7003;57018;50.278;19.134;2024-03-08T08:55:57;41.00;35.00;23.00
69746;PMS7003;57018;50.278;19.134;2024-03-08T08:58:28;45.33;38.00;24.33
69746;PMS7003;57018;50.278;19.134;2024-03-08T09:00:58;43.50;33.50;21.50
69746;PMS7003;57018;50.278;19.134;2024-03-08T09:03:30;45.00;38.00;24.00
69746;PMS7003;57018;50.278;19.134;2024-03-08T09:06:01;43.00;36.00;22.00
69746;PMS7003;57018;50.278;19.134;2024-03-08T09:08:32;43.50;39.50;25.00
69746;PMS7003;57018;50.278;19.134;2024-03-08T09:11:02;37.00;34.00;19.00
69746;PMS7003;57018;50.278;19.134;2024-03-08T09:13:32;43.00;38.00;24.00
69746;PMS7003;57018;50.278;19.134;2024-03-08T09:16:03;38.00;37.00;26.00
69746;PMS7003;57018;50.278;19.134;2024-03-08T09:18:35;42.00;38.67;22.00
69746;PMS7003;57018;50.278;19.134;2024-03-08T09:21:05;42.00;38.00;23.00
69746;PMS7003;57018;50.278;19.134;2024-03-08T09:23:37;40.00;37.00;24.33
69746;PMS7003;57018;50.278;19.134;2024-03-08T09:26:08;42.00;38.00;24.00
69746;PMS7003;57018;50.278;19.134;2024-03-08T09:28:39;44.00;35.00;22.00
69746;PMS7003;57018;50.278;19.134;2024-03-08T09:31:09;39.00;32.75;21.00
69746;PMS7003;57018;50.278;19.134;2024-03-08T09:33:39;42.00;39.00;26.00
69746;PMS7003;57018;50.278;19.134;2024-03-08T09:36:09;40.50;39.50;23.00
69746;PMS7003;57018;50.278;19.134;2024-03-08T09:38:39;48.25;36.25;24.25
69746;PMS7003;57018;50.278;19.134;2024-03-08T09:41:09;43.50;37.50;23.50
69746;PMS7003;57018;50.278;19.134;2024-03-08T09:43:39;41.67;37.67;22.67
69746;PMS7003;57018;50.278;19.134;2024-03-08T09:46:09;42.00;38.00;24.00
69746;PMS7003;57018;50.278;19.134;2024-03-08T09:48:41;37.50;36.50;24.00
69746;PMS7003;57018;50.278;19.134;2024-03-08T09:51:13;37.00;33.00;22.00
69746;PMS7003;57018;50.278;19.134;2024-03-08T09:53:44;34.00;31.50;22.00
69746;PMS7003;57018;50.278;19.134;2024-03-08T09:56:14;38.00;33.33;21.67
69746;PMS7003;57018;50.278;19.134;2024-03-08T09:58:44;39.50;33.50;22.50
69746;PMS7003;57018;50.278;19.134;2024-03-08T10:01:41;38.25;34.25;22.50
69746;PMS7003;57018;50.278;19.134;2024-03-08T10:04:12;40.00;34.50;23.50
69746;PMS7003;57018;50.278;19.134;2024-03-08T10:06:41;38.50;33.00;22.00
69746;PMS7003;57018;50.278;19.134;2024-03-08T10:09:14;35.50;32.00;22.00
69746;PMS7003;57018;50.278;19.134;2024-03-08T10:11:47;40.00;34.67;22.00
69746;PMS7003;57018;50.278;19.134;2024-03-08T10:14:17;38.50;32.00;21.50
69746;PMS7003;57018;50.278;19.134;2024-03-08T10:16:48;36.33;33.00;20.67
69746;PMS7003;57018;50.278;19.134;2024-03-08T10:19:20;39.00;33.00;21.00
69746;PMS7003;57018;50.278;19.134;2024-03-08T10:21:50;37.50;33.50;21.50
69746;PMS7003;57018;50.278;19.134;2024-03-08T10:24:20;43.00;35.00;23.00
69746;PMS7003;57018;50.278;19.134;2024-03-08T10:26:52;35.00;34.00;22.00
69746;PMS7003;57018;50.278;19.134;2024-03-08T10:29:26;39.00;33.00;21.00
69746;PMS7003;57018;50.278;19.134;2024-03-08T10:31:56;40.00;33.50;21.50
69746;PMS7003;57018;50.278;19.134;2024-03-08T10:34:26;43.00;33.50;21.50
69746;PMS7003;57018;50.278;19.134;2024-03-08T10:36:57;40.00;35.00;24.00
69746;PMS7003;57018;50.278;19.134;2024-03-08T10:39:34;39.00;31.00;20.00
69746;PMS7003;57018;50.278;19.134;2024-03-08T10:42:08;35.00;33.00;23.00
69746;PMS7003;57018;50.278;19.134;2024-03-08T10:44:47;42.33;35.33;22.00
69746;PMS7003;57018;50.278;19.134;2024-03-08T10:47:25;42.00;35.00;22.00
69746;PMS7003;57018;50.278;19.134;2024-03-08T10:49:59;43.00;32.50;21.00
69746;PMS7003;57018;50.278;19.134;2024-03-08T10:52:39;38.67;34.00;21.67
69746;PMS7003;57018;50.278;19.134;2024-03-08T10:55:09;43.00;36.00;22.00
69746;PMS7003;57018;50.278;19.134;2024-03-08T10:57:40;37.75;33.75;21.75
69746;PMS7003;57018;50.278;19.134;2024-03-08T11:00:11;42.67;35.67;20.33
69746;PMS7003;57018;50.278;19.134;2024-03-08T11:02:44;35.00;31.00;22.00
69746;PMS7003;57018;50.278;19.134;2024-03-08T11:07:59;35.00;33.00;21.33
69746;PMS7003;57018;50.278;19.134;2024-03-08T11:10:31;41.00;35.00;22.00
69746;PMS7003;57018;50.278;19.134;2024-03-08T11:13:01;39.50;32.00;19.00
69746;PMS7003;57018;50.278;19.134;2024-03-08T11:15:31;41.00;34.50;22.00
69746;PMS7003;57018;50.278;19.134;2024-03-08T11:18:05;35.50;33.50;21.50
69746;PMS7003;57018;50.278;19.134;2024-03-08T11:20:37;47.00;38.00;23.00
69746;PMS7003;57018;50.278;19.134;2024-03-08T11:23:09;45.00;37.00;22.00
69746;PMS7003;57018;50.278;19.134;2024-03-08T11:25:41;40.00;36.00;22.50
69746;PMS7003;57018;50.278;19.134;2024-03-08T11:28:13;40.00;36.00;22.00
69746;PMS7003;57018;50.278;19.134;2024-03-08T11:30:46;46.00;36.33;23.00
69746;PMS7003;57018;50.278;19.134;2024-03-08T11:33:40;42.00;35.50;21.50
69746;PMS7003;57018;50.278;19.134;2024-03-08T11:36:19;43.33;37.00;23.33
69746;PMS7003;57018;50.278;19.134;2024-03-08T11:38:51;39.33;34.33;21.67
69746;PMS7003;57018;50.278;19.134;2024-03-08T11:41:23;43.00;36.00;23.00
69746;PMS7003;57018;50.278;19.134;2024-03-08T11:44:02;39.50;32.50;22.00
69746;PMS7003;57018;50.278;19.134;2024-03-08T11:46:34;39.67;35.00;23.00
69746;PMS7003;57018;50.278;19.134;2024-03-08T11:49:03;37.50;33.00;18.00
69746;PMS7003;57018;50.278;19.134;2024-03-08T11:51:35;33.00;30.50;20.00
69746;PMS7003;57018;50.278;19.134;2024-03-08T11:54:06;41.00;34.00;23.00
69746;PMS7003;57018;50.278;19.134;2024-03-08T11:56:39;44.50;36.00;22.00
69746;PMS7003;57018;50.278;19.134;2024-03-08T11:59:14;34.00;33.00;19.00
69746;PMS7003;57018;50.278;19.134;2024-03-08T12:01:44;34.33;27.00;18.00
69746;PMS7003;57018;50.278;19.134;2024-03-08T12:04:30;48.00;36.00;22.00
69746;PMS7003;57018;50.278;19.134;2024-03-08T12:07:03;39.00;35.00;22.00
69746;PMS7003;57018;50.278;19.134;2024-03-08T12:09:36;34.00;30.67;20.00
69746;PMS7003;57018;50.278;19.134;2024-03-08T12:12:08;39.50;34.50;18.50
69746;PMS7003;57018;50.278;19.134;2024-03-08T12:14:38;32.50;31.50;20.00
69746;PMS7003;57018;50.278;19.134;2024-03-08T12:17:12;33.00;29.50;18.50
69746;PMS7003;57018;50.278;19.134;2024-03-08T12:19:47;37.00;33.00;20.50
69746;PMS7003;57018;50.278;19.134;2024-03-08T12:22:17;42.33;38.00;21.67
69746;PMS7003;57018;50.278;19.134;2024-03-08T12:25:02;40.00;32.50;21.50
69746;PMS7003;57018;50.278;19.134;2024-03-08T12:27:38;41.00;33.00;20.00
69746;PMS7003;57018;50.278;19.134;2024-03-08T12:30:19;41.00;33.67;21.00
69746;PMS7003;57018;50.278;19.134;2024-03-08T12:32:54;40.00;35.33;22.67
69746;PMS7003;57018;50.278;19.134;2024-03-08T12:35:25;41.00;38.00;22.00
69746;PMS7003;57018;50.278;19.134;2024-03-08T12:37:59;40.67;35.67;20.67
69746;PMS7003;57018;50.278;19.134;2024-03-08T12:40:30;40.67;36.67;23.33
69746;PMS7003;57018;50.278;19.134;2024-03-08T12:43:01;44.00;36.00;20.00
69746;PMS7003;57018;50.278;19.134;2024-03-08T12:45:33;46.00;37.67;23.67
69746;PMS7003;57018;50.278;19.134;2024-03-08T12:48:03;40.00;35.67;22.33
69746;PMS7003;57018;50.278;19.134;2024-03-08T12:50:42;39.75;32.50;21.75
69746;PMS7003;57018;50.278;19.134;2024-03-08T12:53:14;38.33;34.00;22.00
69746;PMS7003;57018;50.278;19.134;2024-03-08T12:55:44;39.00;36.00;23.00
69746;PMS7003;57018;50.278;19.134;2024-03-08T12:58:14;40.00;35.50;22.50
69746;PMS7003;57018;50.278;19.134;2024-03-08T13:00:44;39.67;37.33;22.67
69746;PMS7003;57018;50.278;19.134;2024-03-08T13:03:15;48.00;37.00;23.50
69746;PMS7003;57018;50.278;19.134;2024-03-08T13:05:45;39.50;37.50;23.00
69746;PMS7003;57018;50.278;19.134;2024-03-08T13:08:15;45.00;37.00;23.00
69746;PMS7003;57018;50.278;19.134;2024-03-08T13:10:49;54.00;42.00;26.00
69746;PMS7003;57018;50.278;19.134;2024-03-08T13:13:19;46.00;40.00;24.00
69746;PMS7003;57018;50.278;19.134;2024-03-08T13:15:49;47.00;40.00;25.00
69746;PMS7003;57018;50.278;19.134;2024-03-08T13:18:20;43.00;38.33;23.33
69746;PMS7003;57018;50.278;19.134;2024-03-08T13:20:50;40.00;34.67;22.00
69746;PMS7003;57018;50.278;19.134;2024-03-08T13:23:19;53.50;41.00;26.00
69746;PMS7003;57018;50.278;19.134;2024-03-08T13:25:49;44.75;38.50;25.00
69746;PMS7003;57018;50.278;19.134;2024-03-08T13:28:19;44.50;38.00;24.50
69746;PMS7003;57018;50.278;19.134;2024-03-08T13:30:54;54.00;42.00;25.50
69746;PMS7003;57018;50.278;19.134;2024-03-08T13:33:25;37.00;35.00;17.00
69746;PMS7003;57018;50.278;19.134;2024-03-08T13:35:57;38.00;34.33;21.67
69746;PMS7003;57018;50.278;19.134;2024-03-08T13:38:28;42.50;35.00;23.50
69746;PMS7003;57018;50.278;19.134;2024-03-08T13:41:00;43.00;35.00;22.00
69746;PMS7003;57018;50.278;19.134;2024-03-08T13:43:33;39.00;34.00;21.00
69746;PMS7003;57018;50.278;19.134;2024-03-08T13:46:04;42.50;36.00;20.50
69746;PMS7003;57018;50.278;19.134;2024-03-08T13:48:35;45.00;35.75;22.25
69746;PMS7003;57018;50.278;19.134;2024-03-08T13:51:05;41.00;35.00;23.00
69746;PMS7003;57018;50.278;19.134;2024-03-08T13:53:38;38.25;35.00;20.50
69746;PMS7003;57018;50.278;19.134;2024-03-08T13:56:08;41.00;36.00;22.00
69746;PMS7003;57018;50.278;19.134;2024-03-08T13:58:38;43.67;36.67;21.00
69746;PMS7003;57018;50.278;19.134;2024-03-08T14:01:09;35.00;31.00;20.33